createdAt,value
2023-04-16T00:02:12.356Z,95904.72
2023-04-16T00:05:15.462Z,95899.56
2023-04-16T00:08:18.568Z,95909.19
2023-04-16T00:11:22.179Z,95916.84
2023-04-16T00:14:24.714Z,95916.19
2023-04-16T00:17:26.303Z,95912.13
2023-04-16T00:20:30.741Z,95915.59
2023-04-16T00:23:32.374Z,95913.94
2023-04-16T00:26:36.465Z,95923.88
2023-04-16T00:29:38.640Z,95917.84
2023-04-16T00:32:41.840Z,95914.47
2023-04-16T00:35:46.537Z,95918.09
2023-04-16T00:38:49.203Z,95919.09
2023-04-16T00:41:51.787Z,95921.75
2023-04-16T00:44:54.262Z,95921.75
2023-04-16T00:48:00.421Z,95919.09
2023-04-16T00:51:05.124Z,95920.91
2023-04-16T00:54:07.030Z,95928.88
2023-04-16T00:57:10.100Z,95926.22
2023-04-16T01:00:13.228Z,95923.56
2023-04-16T01:03:15.067Z,95926.22
2023-04-16T01:06:18.767Z,95924.66
2023-04-16T01:09:20.954Z,95929.41
2023-04-16T01:12:23.828Z,95927.59
2023-04-16T01:15:27.343Z,95921.44
2023-04-16T01:18:29.812Z,95928.47
2023-04-16T01:21:31.495Z,95926.66
2023-04-16T01:24:33.724Z,95930.97
2023-04-16T01:27:37.537Z,95918.56
2023-04-16T01:30:39.702Z,95921.03
2023-04-16T01:34:01.662Z,95922.41
2023-04-16T01:37:04.938Z,95923.25
2023-04-16T01:40:07.541Z,95927.59
2023-04-16T01:43:09.202Z,95928.47
2023-04-16T01:46:15.279Z,95924.00
2023-04-16T01:49:17.410Z,95933.75
2023-04-16T01:52:19.484Z,95925.91
2023-04-16T01:55:21.350Z,95932.91
2023-04-16T01:58:24.341Z,95932.06
2023-04-16T02:01:29.001Z,95928.56
2023-04-16T02:04:32.337Z,95929.53
2023-04-16T02:07:34.556Z,95933.16
2023-04-16T02:10:36.910Z,95934.16
2023-04-16T02:13:39.488Z,95932.50
2023-04-16T02:16:41.716Z,95934.28
2023-04-16T02:19:55.009Z,95935.41
2023-04-16T02:22:57.596Z,95922.56
2023-04-16T02:26:01.206Z,95942.53
2023-04-16T02:29:04.168Z,95937.22
2023-04-16T02:32:13.504Z,95939.88
2023-04-16T02:35:18.906Z,95939.03
2023-04-16T02:38:20.549Z,95933.84
2023-04-16T02:41:22.587Z,95934.69
2023-04-16T02:44:25.792Z,95928.84
2023-04-16T02:47:28.861Z,95930.22
2023-04-16T02:50:31.069Z,95933.72
2023-04-16T02:53:32.629Z,95941.69
2023-04-16T02:56:34.697Z,95942.53
2023-04-16T02:59:36.395Z,95930.22
2023-04-16T03:02:39.207Z,95938.91
2023-04-16T03:05:41.522Z,95941.53
2023-04-16T03:08:43.550Z,95940.56
2023-04-16T03:11:45.759Z,95934.56
2023-04-16T03:14:47.832Z,95938.06
2023-04-16T03:17:49.851Z,95946.84
2023-04-16T03:20:55.148Z,95947.81
2023-04-16T03:23:59.226Z,95938.50
2023-04-16T03:27:01.922Z,95948.53
2023-04-16T03:30:04.974Z,95951.19
2023-04-16T03:33:09.558Z,95949.50
2023-04-16T03:36:11.411Z,95953.13
2023-04-16T03:39:13.107Z,95957.47
2023-04-16T03:42:16.464Z,95953.97
2023-04-16T03:45:18.492Z,95963.75
2023-04-16T03:48:22.141Z,95964.56
2023-04-16T03:51:26.285Z,95964.56
2023-04-16T03:54:30.440Z,95952.72
2023-04-16T03:57:45.021Z,95973.50
2023-04-16T04:00:48.780Z,95964.16
2023-04-16T04:03:52.519Z,95969.03
2023-04-16T04:06:55.289Z,95970.00
2023-04-16T04:10:00.774Z,95975.19
2023-04-16T04:13:04.710Z,95969.88
2023-04-16T04:16:08.447Z,95974.78
2023-04-16T04:19:11.359Z,95973.94
2023-04-16T04:22:13.703Z,95976.44
2023-04-16T04:25:16.905Z,95965.56
2023-04-16T04:28:18.756Z,95980.91
2023-04-16T04:31:20.466Z,95977.28
2023-04-16T04:34:26.233Z,95976.31
2023-04-16T04:37:31.880Z,95974.63
2023-04-16T04:40:34.601Z,95983.28
2023-04-16T04:43:36.767Z,95982.44
2023-04-16T04:46:40.690Z,95985.09
2023-04-16T04:49:45.138Z,95985.00
2023-04-16T04:52:48.476Z,95995.47
2023-04-16T04:55:54.049Z,96000.78
2023-04-16T04:59:01.688Z,95994.50
2023-04-16T05:02:07.984Z,96004.97
2023-04-16T05:05:11.027Z,96005.78
2023-04-16T05:08:16.399Z,95996.16
2023-04-16T05:11:18.424Z,95999.25
2023-04-16T05:14:22.631Z,96000.78
2023-04-16T05:17:24.243Z,96006.91
2023-04-16T05:20:29.121Z,96006.38
2023-04-16T05:23:32.053Z,96004.25
2023-04-16T05:26:33.758Z,96011.25
2023-04-16T05:29:37.303Z,96007.75
2023-04-16T05:32:41.487Z,96006.91
2023-04-16T05:35:45.020Z,96015.31
2023-04-16T05:38:46.677Z,96011.66
2023-04-16T05:41:48.738Z,96015.72
2023-04-16T05:44:51.317Z,96021.75
2023-04-16T05:47:53.916Z,96021.31
2023-04-16T05:50:55.660Z,96025.53
2023-04-16T05:54:02.976Z,96026.19
2023-04-16T05:57:05.603Z,96023.53
2023-04-16T06:00:09.420Z,96029.97
2023-04-16T06:03:22.016Z,96034.44
2023-04-16T06:06:29.074Z,96029.81
2023-04-16T06:09:42.181Z,96032.63
2023-04-16T06:12:44.016Z,96037.53
2023-04-16T06:15:47.246Z,96034.31
2023-04-16T06:18:59.110Z,96038.19
2023-04-16T06:22:01.175Z,96041.44
2023-04-16T06:25:02.880Z,96039.88
2023-04-16T06:28:04.598Z,96037.94
2023-04-16T06:31:10.395Z,96045.75
2023-04-16T06:34:12.624Z,96051.75
2023-04-16T06:37:19.766Z,96048.97
2023-04-16T06:40:22.849Z,96050.50
2023-04-16T06:43:27.081Z,96049.66
2023-04-16T06:46:31.321Z,96052.19
2023-04-16T06:49:34.722Z,96045.75
2023-04-16T06:52:37.558Z,96039.31
2023-04-16T06:55:40.928Z,96039.44
2023-04-16T06:58:44.166Z,96043.38
2023-04-16T07:01:46.349Z,96046.56
2023-04-16T07:04:52.994Z,96038.59
2023-04-16T07:07:59.880Z,96049.50
2023-04-16T07:11:02.845Z,96036.53
2023-04-16T07:14:06.119Z,96052.28
2023-04-16T07:17:08.338Z,96054.69
2023-04-16T07:20:12.042Z,96049.19
2023-04-16T07:23:14.033Z,96048.78
2023-04-16T07:26:17.794Z,96043.47
2023-04-16T07:29:19.891Z,96047.22
2023-04-16T07:32:26.198Z,96046.94
2023-04-16T07:35:28.718Z,96051.81
2023-04-16T07:38:30.413Z,96047.19
2023-04-16T07:41:33.308Z,96059.22
2023-04-16T07:44:35.331Z,96043.97
2023-04-16T07:47:40.100Z,96062.66
2023-04-16T07:50:45.065Z,96065.63
2023-04-16T07:53:54.220Z,96066.28
2023-04-16T07:56:59.810Z,96063.88
2023-04-16T08:00:10.720Z,96080.78
2023-04-16T08:03:16.663Z,96069.69
2023-04-16T08:06:18.607Z,96083.56
2023-04-16T08:09:23.294Z,96081.16
2023-04-16T08:12:24.898Z,96081.72
2023-04-16T08:15:28.572Z,96088.13
2023-04-16T08:18:30.678Z,96089.22
2023-04-16T08:21:34.307Z,96096.44
2023-04-16T08:24:35.873Z,96095.84
2023-04-16T08:27:41.484Z,96092.47
2023-04-16T08:30:43.143Z,96094.50
2023-04-16T08:33:48.500Z,96094.75
2023-04-16T08:36:50.446Z,96100.16
2023-04-16T08:39:52.043Z,96103.22
2023-04-16T08:42:58.212Z,96112.97
2023-04-16T08:46:01.475Z,96113.94
2023-04-16T08:49:08.072Z,96106.03
2023-04-16T08:52:15.840Z,96102.91
2023-04-16T08:55:21.694Z,96110.56
2023-04-16T08:58:23.475Z,96111.25
2023-04-16T09:01:28.351Z,96116.16
2023-04-16T09:04:32.523Z,96110.66
2023-04-16T09:07:35.457Z,96123.34
2023-04-16T09:10:42.493Z,96123.34
2023-04-16T09:13:46.513Z,96126.03
2023-04-16T09:16:49.231Z,96130.38
2023-04-16T09:19:52.179Z,96122.38
2023-04-16T09:22:57.129Z,96124.75
2023-04-16T09:26:09.829Z,96118.94
2023-04-16T09:29:36.539Z,96118.03
2023-04-16T09:32:38.671Z,96127.09
2023-04-16T09:35:50.814Z,96128.69
2023-04-16T09:38:54.959Z,96120.06
2023-04-16T09:41:59.900Z,96115.47
2023-04-16T09:45:05.729Z,96119.88
2023-04-16T09:48:09.383Z,96114.75
2023-04-16T09:51:11.768Z,96111.78
2023-04-16T09:54:17.153Z,96117.47
2023-04-16T09:57:32.027Z,96123.84
2023-04-16T10:00:43.677Z,96122.38
2023-04-16T10:03:49.836Z,96131.44
2023-04-16T10:07:06.569Z,96136.91
2023-04-16T10:10:11.880Z,96123.56
2023-04-16T10:13:18.550Z,96128.06
2023-04-16T10:16:24.044Z,96134.44
2023-04-16T10:19:32.321Z,96136.47
2023-04-16T10:22:35.413Z,96135.13
2023-04-16T10:25:39.167Z,96135.53
2023-04-16T10:28:43.350Z,96133.56
2023-04-16T10:31:52.524Z,96134.59
2023-04-16T10:34:59.611Z,96149.66
2023-04-16T10:38:24.105Z,96143.00
2023-04-16T10:41:27.703Z,96138.50
2023-04-16T10:44:34.430Z,96142.69
2023-04-16T10:47:40.682Z,96147.22
2023-04-16T10:50:44.462Z,96144.22
2023-04-16T10:53:48.824Z,96146.09
2023-04-16T10:56:52.996Z,96144.47
2023-04-16T10:59:55.344Z,96140.34
2023-04-16T11:02:58.838Z,96145.84
2023-04-16T11:06:31.955Z,96145.03
2023-04-16T11:09:53.423Z,96147.03
2023-04-16T11:12:56.233Z,96133.50
2023-04-16T11:16:00.188Z,96145.19
2023-04-16T11:19:03.432Z,96151.69
2023-04-16T11:22:05.945Z,96142.00
2023-04-16T11:25:08.828Z,96141.00
2023-04-16T11:28:10.593Z,96148.88
2023-04-16T11:31:12.787Z,96149.72
2023-04-16T11:34:16.784Z,96150.22
2023-04-16T11:37:33.405Z,96155.56
2023-04-16T11:40:36.407Z,96150.84
2023-04-16T11:43:38.531Z,96158.00
2023-04-16T11:46:42.968Z,96155.66
2023-04-16T11:49:48.736Z,96160.31
2023-04-16T11:52:59.701Z,96165.16
2023-04-16T11:56:08.170Z,96163.75
2023-04-16T11:59:17.193Z,96167.22
2023-04-16T12:02:37.718Z,96166.56
2023-04-16T12:05:43.318Z,96167.88
2023-04-16T12:08:46.722Z,96164.16
2023-04-16T12:11:48.692Z,96164.50
2023-04-16T12:15:04.220Z,96170.47
2023-04-16T12:18:08.211Z,96169.94
2023-04-16T12:21:10.239Z,96171.78
2023-04-16T12:25:17.847Z,96166.75
2023-04-16T12:28:33.968Z,96170.72
2023-04-16T12:31:38.781Z,96173.19
2023-04-16T12:34:52.236Z,96177.53
2023-04-16T12:37:54.576Z,96169.69
2023-04-16T12:40:57.812Z,96168.69
2023-04-16T12:44:09.199Z,96177.69
2023-04-16T12:47:11.541Z,96169.84
2023-04-16T12:50:13.595Z,96180.50
2023-04-16T12:53:15.624Z,96176.16
2023-04-16T12:56:17.681Z,96182.81
2023-04-16T12:59:19.696Z,96177.78
2023-04-16T13:02:42.962Z,96176.44
2023-04-16T13:05:45.555Z,96167.09
2023-04-16T13:08:47.979Z,96176.91
2023-04-16T13:11:50.299Z,96175.75
2023-04-16T13:14:52.911Z,96173.91
2023-04-16T13:17:54.933Z,96172.09
2023-04-16T13:20:56.943Z,96177.44
2023-04-16T13:23:59.736Z,96181.09
2023-04-16T13:27:03.046Z,96177.44
2023-04-16T13:30:32.538Z,96188.09
2023-04-16T13:33:38.598Z,96176.72
2023-04-16T13:36:40.867Z,96184.28
2023-04-16T13:39:45.839Z,96184.44
2023-04-16T13:42:47.889Z,96184.28
2023-04-16T13:45:49.481Z,96184.94
2023-04-16T13:48:52.212Z,96188.47
2023-04-16T13:51:57.972Z,96182.75
2023-04-16T13:55:00.247Z,96187.25
2023-04-16T13:58:02.906Z,96180.44
2023-04-16T14:01:05.085Z,96182.06
2023-04-16T14:04:07.491Z,96185.91
2023-04-16T14:07:09.544Z,96188.94
2023-04-16T14:10:11.387Z,96184.94
2023-04-16T14:13:13.467Z,96185.78
2023-04-16T14:16:15.722Z,96188.16
2023-04-16T14:19:17.388Z,96187.53
2023-04-16T14:22:19.390Z,96180.91
2023-04-16T14:25:21.762Z,96189.31
2023-04-16T14:28:23.730Z,96178.31
2023-04-16T14:31:26.191Z,96189.88
2023-04-16T14:34:28.397Z,96190.41
2023-04-16T14:37:32.152Z,96186.41
2023-04-16T14:40:35.281Z,96195.94
2023-04-16T14:43:38.093Z,96198.75
2023-04-16T14:46:41.663Z,96194.56
2023-04-16T14:49:45.346Z,96194.25
2023-04-16T14:52:47.406Z,96200.44
2023-04-16T14:55:49.204Z,96199.06
2023-04-16T14:58:50.852Z,96201.38
2023-04-16T15:01:56.137Z,96201.69
2023-04-16T15:04:57.900Z,96207.50
2023-04-16T15:08:00.557Z,96204.44
2023-04-16T15:11:03.129Z,96215.97
2023-04-16T15:14:04.758Z,96219.41
2023-04-16T15:17:06.736Z,96210.34
2023-04-16T15:20:09.135Z,96211.63
2023-04-16T15:23:12.150Z,96219.91
2023-04-16T15:26:14.528Z,96223.19
2023-04-16T15:29:16.600Z,96227.78
2023-04-16T15:32:18.196Z,96218.69
2023-04-16T15:35:20.114Z,96228.16
2023-04-16T15:38:23.569Z,96226.81
2023-04-16T15:41:30.714Z,96232.28
2023-04-16T15:44:43.668Z,96221.53
2023-04-16T15:47:50.934Z,96229.69
2023-04-16T15:50:54.212Z,96229.47
2023-04-16T15:53:57.575Z,96228.75
2023-04-16T15:57:01.923Z,96237.91
2023-04-16T16:00:13.762Z,96239.88
2023-04-16T16:03:17.631Z,96239.75
2023-04-16T16:06:21.424Z,96245.91
2023-04-16T16:09:26.711Z,96243.25
2023-04-16T16:12:33.552Z,96240.59
2023-04-16T16:15:41.420Z,96246.59
2023-04-16T16:18:44.980Z,96239.59
2023-04-16T16:21:46.553Z,96249.94
2023-04-16T16:24:51.190Z,96250.50
2023-04-16T16:27:53.783Z,96247.50
2023-04-16T16:30:55.807Z,96255.38
2023-04-16T16:34:00.752Z,96260.41
2023-04-16T16:37:02.985Z,96253.91
2023-04-16T16:40:05.104Z,96263.31
2023-04-16T16:43:07.091Z,96254.59
2023-04-16T16:46:10.891Z,96260.16
2023-04-16T16:49:13.082Z,96262.69
2023-04-16T16:52:14.713Z,96257.34
2023-04-16T16:55:18.761Z,96263.53
2023-04-16T16:58:20.838Z,96259.88
2023-04-16T17:01:22.454Z,96261.69
2023-04-16T17:04:24.793Z,96263.22
2023-04-16T17:07:26.562Z,96271.91
2023-04-16T17:10:29.027Z,96269.22
2023-04-16T17:13:32.981Z,96270.91
2023-04-16T17:16:35.029Z,96271.91
2023-04-16T17:19:40.910Z,96270.38
2023-04-16T17:22:42.842Z,96276.41
2023-04-16T17:25:45.852Z,96268.53
2023-04-16T17:28:47.657Z,96278.22
2023-04-16T17:31:49.730Z,96280.38
2023-04-16T17:34:52.125Z,96277.16
2023-04-16T17:37:54.855Z,96281.50
2023-04-16T17:40:58.814Z,96278.47
2023-04-16T17:44:00.379Z,96283.09
2023-04-16T17:47:04.247Z,96286.91
2023-04-16T17:50:09.542Z,96291.56
2023-04-16T17:53:11.217Z,96279.66
2023-04-16T17:56:14.391Z,96286.97
2023-04-16T17:59:17.386Z,96297.78
2023-04-16T18:02:20.541Z,96296.25
2023-04-16T18:05:27.459Z,96305.41
2023-04-16T18:08:31.317Z,96303.03
2023-04-16T18:11:36.318Z,96297.97
2023-04-16T18:14:49.965Z,96297.75
2023-04-16T18:17:56.385Z,96307.28
2023-04-16T18:21:01.146Z,96302.22
2023-04-16T18:24:12.839Z,96308.72
2023-04-16T18:27:15.372Z,96310.41
2023-04-16T18:30:23.444Z,96306.06
2023-04-16T18:33:49.937Z,96313.22
2023-04-16T18:36:52.361Z,96320.50
2023-04-16T18:39:57.912Z,96322.47
2023-04-16T18:43:00.295Z,96325.31
2023-04-16T18:46:02.393Z,96328.13
2023-04-16T18:49:06.799Z,96337.94
2023-04-16T18:52:09.862Z,96333.06
2023-04-16T18:55:11.476Z,96344.25
2023-04-16T18:58:13.684Z,96343.53
2023-04-16T19:01:17.098Z,96355.34
2023-04-16T19:04:19.623Z,96350.31
2023-04-16T19:07:21.651Z,96356.34
2023-04-16T19:10:24.933Z,96351.13
2023-04-16T19:13:27.006Z,96359.00
2023-04-16T19:16:32.215Z,96354.66
2023-04-16T19:19:43.552Z,96359.97
2023-04-16T19:22:46.662Z,96373.44
2023-04-16T19:25:49.461Z,96370.91
2023-04-16T19:28:55.622Z,96367.72
2023-04-16T19:31:57.443Z,96366.75
2023-04-16T19:34:59.540Z,96364.22
2023-04-16T19:38:03.462Z,96365.91
2023-04-16T19:41:05.931Z,96371.22
2023-04-16T19:44:09.051Z,96375.56
2023-04-16T19:47:11.814Z,96377.25
2023-04-16T19:50:13.951Z,96379.06
2023-04-16T19:53:17.783Z,96387.22
2023-04-16T19:56:20.145Z,96389.03
2023-04-16T19:59:30.949Z,96390.84
2023-04-16T20:02:35.849Z,96387.78
2023-04-16T20:05:37.850Z,96396.78
2023-04-16T20:08:45.010Z,96399.44
2023-04-16T20:11:50.569Z,96399.31
2023-04-16T20:14:52.325Z,96398.19
2023-04-16T20:17:56.216Z,96401.69
2023-04-16T20:20:58.025Z,96395.13
2023-04-16T20:24:00.710Z,96392.59
2023-04-16T20:27:02.869Z,96397.38
2023-04-16T20:30:06.212Z,96395.13
2023-04-16T20:33:08.708Z,96394.72
2023-04-16T20:36:12.651Z,96391.78
2023-04-16T20:39:14.727Z,96399.34
2023-04-16T20:42:16.962Z,96379.31
2023-04-16T20:45:18.748Z,96376.13
2023-04-16T20:48:21.282Z,96379.88
2023-04-16T20:51:23.663Z,96376.69
2023-04-16T20:54:27.199Z,96375.84
2023-04-16T20:57:29.873Z,96376.09
2023-04-16T21:00:33.423Z,96371.22
2023-04-16T21:03:38.722Z,96384.66
2023-04-16T21:06:51.205Z,96380.88
2023-04-16T21:09:53.689Z,96383.53
2023-04-16T21:12:56.287Z,96391.66
2023-04-16T21:15:58.984Z,96384.94
2023-04-16T21:19:01.186Z,96382.53
2023-04-16T21:22:02.845Z,96384.66
2023-04-16T21:25:05.239Z,96384.06
2023-04-16T21:28:07.711Z,96383.66
2023-04-16T21:31:09.697Z,96384.91
2023-04-16T21:34:16.463Z,96383.38
2023-04-16T21:37:21.039Z,96388.41
2023-04-16T21:40:23.745Z,96393.84
2023-04-16T21:43:32.095Z,96384.47
2023-04-16T21:46:37.946Z,96387.41
2023-04-16T21:49:43.791Z,96379.81
2023-04-16T21:52:47.160Z,96385.97
2023-04-16T21:55:53.990Z,96379.41
2023-04-16T21:58:55.524Z,96392.56
2023-04-16T22:02:01.127Z,96379.81
2023-04-16T22:05:03.313Z,96387.09
2023-04-16T22:08:20.992Z,96381.06
2023-04-16T22:11:32.263Z,96377.97
2023-04-16T22:14:35.177Z,96383.72
2023-04-16T22:17:40.443Z,96383.97
2023-04-16T22:20:49.602Z,96382.41
2023-04-16T22:23:57.967Z,96380.28
2023-04-16T22:27:01.836Z,96387.72
2023-04-16T22:30:12.491Z,96386.16
2023-04-16T22:33:16.123Z,96387.00
2023-04-16T22:36:19.232Z,96386.03
2023-04-16T22:39:24.967Z,96388.56
2023-04-16T22:42:28.894Z,96386.75
2023-04-16T22:45:35.164Z,96391.88
2023-04-16T22:48:39.320Z,96389.94
2023-04-16T22:51:44.799Z,96379.44
2023-04-16T22:54:47.167Z,96388.25
2023-04-16T22:57:56.003Z,96390.78
2023-04-16T23:01:08.975Z,96378.47
2023-04-16T23:04:13.296Z,96380.03
2023-04-16T23:07:17.153Z,96388.25
2023-04-16T23:10:19.937Z,96372.59
2023-04-16T23:13:23.958Z,96384.38
2023-04-16T23:16:28.966Z,96377.94
2023-04-16T23:19:37.514Z,96375.16
2023-04-16T23:22:41.501Z,96380.34
2023-04-16T23:25:44.347Z,96378.38
2023-04-16T23:28:51.912Z,96377.25
2023-04-16T23:32:00.193Z,96365.94
2023-04-16T23:35:04.798Z,96373.50
2023-04-16T23:38:16.468Z,96371.69
2023-04-16T23:41:20.462Z,96371.56
2023-04-16T23:44:23.761Z,96372.41
2023-04-16T23:47:27.172Z,96375.88
2023-04-16T23:50:30.208Z,96373.22
2023-04-16T23:53:38.198Z,96373.09
2023-04-16T23:56:41.480Z,96376.59
2023-04-16T23:59:46.316Z,96374.91
